KASG

Springdale Municipal Airport

Springdale, Arkansas, USA
METAR KASG 220048Z 06005KT 6SM BR OVC005 M01/00 A3040
Observed Flight Rules
Feb-22 @ 00:48 UTC (4 hours ago) Instrument Flight Rules
Wind Visibility Clouds Conditions
60° at 5 knots 6 miles
  • Overcast at 500' AGL
  • Mist
Temperatures Readings
Current -1°C / 30°F
Dewpoint 0°C / 32°F
Humidity 107%
Altimeter 30.4" Hg
Pressure 1029 hPa
Elevation 412
METAR KASG 220048Z 06005KT 6SM BR OVC005 M01/00 A3040
Observed Flight Rules
Feb-22 @ 00:48 UTC
(4 hours ago)
IFR
Wind Visibility
60° at 5 knots 6 miles
Clouds
  • Overcast at 500' AGL
Conditions
  • Mist
Temperature Dewpoint
-1°C / 30°F 0°C / 32°F
Humidity Altimeter Pressure
107% 30.4" Hg 1029 hPa